Date,TemperatureHighF,TemperatureAvgF,TemperatureLowF,DewpointHighF,DewpointAvgF,DewpointLowF,HumidityHigh,HumidityAvg,HumidityLow,PressureMaxIn,PressureMinIn,WindSpeedMaxMPH,WindSpeedAvgMPH,GustSpeedMaxMPH,PrecipitationSumIn
2014-1-1,56.7,50.8,44.1,53.6,48.3,40.3,94,91,86,30.31,30.03,9,1,9,0.24
2014-1-2,55.8,49.9,36.1,54.1,41.9,26.4,94,75,50,30.39,29.98,23,5,23,0.01
2014-1-3,46.4,37.2,29.5,27.3,23.1,20.1,78,58,37,30.47,30.27,17,4,17,0.00
2014-1-4,61.0,44.5,29.7,47.8,36.6,23.0,92,74,57,30.28,30.01,16,2,16,0.00
2014-1-5,70.7,53.1,34.9,62.6,48.3,28.2,92,84,70,30.22,29.82,26,5,26,0.20
2014-1-6,34.9,29.0,25.3,28.4,15.8,9.1,78,58,41,30.64,30.22,28,7,28,0.00
2014-1-7,36.5,29.1,22.3,18.3,12.4,7.5,62,50,36,30.69,30.50,12,2,13,0.00
2014-1-8,49.8,38.0,24.8,35.8,24.5,13.6,77,59,39,30.50,30.30,18,4,18,0.00
2014-1-9,67.5,51.4,39.7,54.5,43.1,33.1,90,74,60,30.32,30.18,16,3,17,0.00
2014-1-10,68.0,58.6,49.8,65.8,56.0,47.3,94,91,84,30.18,29.84,17,4,18,0.11
2014-1-11,70.2,63.3,43.9,66.4,49.6,32.5,93,66,26,30.12,29.82,22,3,22,0.32
2014-1-12,70.0,54.2,38.1,44.6,38.1,34.7,91,59,28,30.21,30.04,15,2,16,0.00
2014-1-13,67.3,59.5,51.3,63.3,54.6,39.6,93,84,63,30.04,29.83,18,2,20,0.39
2014-1-14,63.0,48.9,40.1,42.8,37.9,33.1,84,67,35,30.13,30.04,10,1,10,0.00
2014-1-15,54.0,46.6,37.4,41.2,29.0,18.5,87,53,27,30.29,30.08,20,4,21,0.00
2014-1-16,62.2,47.4,30.9,44.8,34.4,26.4,87,64,30,30.21,30.06,18,3,18,0.00
2014-1-17,58.6,49.2,37.6,46.0,30.3,17.2,89,53,22,30.27,30.10,16,2,16,0.00
2014-1-18,62.2,46.2,31.1,39.6,27.4,18.3,80,52,25,30.31,30.11,14,3,14,0.00
2014-1-19,64.2,52.4,41.4,52.5,38.7,29.1,93,64,30,30.26,30.10,12,2,14,0.01
2014-1-20,71.2,53.1,36.3,56.3,44.9,32.2,91,76,44,30.14,29.96,12,1,12,0.00
2014-1-21,59.5,52.1,36.1,57.6,32.8,18.7,93,52,24,30.25,29.96,20,6,26,0.00
2014-1-22,56.5,42.3,29.8,34.7,25.6,20.3,74,53,32,30.28,30.14,12,2,12,0.00
2014-1-23,52.3,43.9,32.7,37.8,32.9,25.0,83,66,45,30.61,30.17,27,6,27,0.00
2014-1-24,32.7,28.3,27.1,27.9,24.9,22.3,91,87,81,30.63,30.34,23,6,23,0.00
2014-1-25,55.2,39.0,26.6,38.5,32.3,24.8,93,79,51,30.35,30.05,14,2,14,0.20
2014-1-26,64.6,51.1,38.3,53.2,44.9,36.0,92,81,52,30.05,29.85,15,2,15,0.00
2014-1-27,60.1,52.8,39.9,57.4,45.2,18.7,94,77,42,30.15,29.84,20,5,21,0.00
2014-1-28,39.9,29.1,24.4,25.7,20.7,14.5,89,73,42,30.40,30.13,23,10,24,0.00
2014-1-29,35.2,28.3,23.7,16.2,12.0,7.5,64,50,38,30.51,30.35,17,6,17,0.00
2014-1-30,51.4,37.2,22.6,36.1,25.8,12.0,88,64,49,30.36,30.10,14,3,14,0.03
2014-1-31,61.9,49.9,37.9,51.3,44.5,34.7,91,82,67,30.15,30.02,16,4,17,0.00
2014-2-1,74.8,60.6,47.7,64.0,56.0,45.1,93,86,68,30.03,29.95,15,3,16,0.00
2014-2-2,72.3,63.3,41.7,69.4,60.9,39.6,94,92,80,30.06,29.85,21,4,22,0.28
2014-2-3,46.9,41.3,37.6,42.6,38.8,35.4,93,91,84,30.19,30.04,18,7,18,0.00
2014-2-4,67.8,50.0,42.3,65.7,48.1,40.1,94,93,91,30.08,29.74,21,4,21,1.45
2014-2-5,49.1,42.1,36.1,42.4,37.1,29.8,93,83,69,30.36,30.04,20,8,21,0.00
2014-2-6,40.5,34.9,31.5,31.6,28.9,26.4,87,79,68,30.45,30.30,20,7,20,0.03
2014-2-7,52.9,39.0,28.8,37.8,31.9,25.9,90,77,53,30.38,30.19,15,4,15,0.05
2014-2-8,62.1,48.5,38.1,51.4,43.4,35.4,91,83,65,30.27,30.12,10,2,10,0.01
2014-2-9,74.3,58.5,46.2,57.2,51.4,43.9,92,79,48,30.18,30.03,12,1,12,0.00
2014-2-10,57.7,52.0,43.5,54.9,49.7,41.7,93,92,89,30.13,30.03,14,4,18,0.05
2014-2-11,43.5,39.1,35.8,41.7,37.1,34.0,93,92,90,30.17,30.01,22,8,24,1.70
2014-2-12,36.9,35.0,34.2,35.1,33.1,32.0,93,93,92,30.09,29.94,15,4,16,0.08
2014-2-13,55.4,41.2,30.2,41.4,35.2,28.4,93,81,53,30.11,29.99,10,2,10,0.00
2014-2-14,66.0,52.7,36.1,57.4,47.5,34.0,92,83,65,30.01,29.83,17,4,23,0.00
2014-2-15,64.9,51.6,42.8,50.0,36.0,31.5,83,57,30,30.24,29.99,13,2,13,0.00
2014-2-16,70.3,55.5,39.7,59.7,49.9,37.0,92,82,68,30.18,30.09,9,1,9,0.00
2014-2-17,76.8,65.4,56.5,65.5,60.3,53.8,93,84,66,30.13,30.04,13,3,18,0.00
2014-2-18,74.1,66.7,62.4,65.8,62.3,60.4,94,86,71,30.15,30.02,16,4,16,0.00
2014-2-19,80.8,69.4,63.9,67.5,63.0,59.9,93,81,52,30.06,29.92,16,3,17,0.00
2014-2-20,79.7,71.9,62.8,70.0,66.8,59.9,92,84,67,29.97,29.79,24,7,25,1.14
2014-2-21,65.8,56.5,47.7,59.4,37.7,27.1,90,53,25,30.15,29.97,26,5,26,0.09
2014-2-22,66.7,56.9,45.5,51.1,42.2,33.8,86,61,32,30.16,29.97,17,2,18,0.00
2014-2-23,64.2,60.2,56.1,61.7,57.3,51.4,93,90,77,30.03,29.93,16,1,16,0.95
2014-2-24,72.7,64.4,56.5,60.3,58.7,54.7,94,82,61,30.14,30.01,16,2,16,0.00
2014-2-25,68.9,61.9,57.0,63.3,58.7,54.5,93,89,82,30.09,29.92,12,1,12,1.60
2014-2-26,58.5,46.5,37.2,56.5,41.4,29.3,93,83,66,30.13,29.88,24,8,25,0.33
2014-2-27,56.1,42.6,31.8,34.9,28.3,23.2,83,60,33,30.19,30.01,14,3,14,0.00
2014-2-28,64.2,51.7,36.3,53.1,43.5,33.6,92,75,49,30.08,29.96,19,4,19,0.00
2014-3-1,79.7,66.8,56.7,66.2,59.8,52.2,91,79,59,30.14,30.01,15,3,15,0.00
2014-3-2,79.2,68.7,61.5,68.4,63.4,58.6,92,84,65,30.13,29.93,19,5,19,0.00
2014-3-3,69.3,40.6,30.0,65.1,36.1,25.5,92,84,72,30.25,29.93,17,8,22,0.21
2014-3-4,36.5,32.4,28.8,34.2,29.7,25.2,92,90,84,30.25,30.09,15,4,15,0.38
2014-3-5,60.3,46.7,36.1,52.0,42.9,33.8,92,87,73,30.12,29.96,11,4,12,0.00
2014-3-6,48.6,45.2,42.6,46.0,42.8,40.1,92,91,91,30.08,29.98,16,3,17,0.07
2014-3-7,59.2,49.3,42.4,48.4,44.3,40.1,92,84,65,30.14,30.00,11,2,11,0.00
2014-3-8,72.1,58.8,46.9,56.5,51.3,44.4,92,78,54,30.18,30.04,11,1,11,0.00
2014-3-9,71.8,62.9,53.1,59.2,55.3,50.5,92,77,60,30.24,30.11,13,1,13,0.00
2014-3-10,78.3,64.6,50.9,59.4,55.2,48.6,92,73,50,30.17,29.96,10,2,10,0.00
2014-3-11,74.7,66.5,62.2,67.8,62.3,58.3,91,87,74,29.96,29.66,15,2,15,0.06
2014-3-12,66.6,61.2,50.5,59.4,50.6,34.9,90,70,44,30.19,29.73,17,6,25,0.00
2014-3-13,69.1,54.0,38.8,41.7,34.9,28.2,86,52,27,30.33,30.19,17,2,18,0.00
2014-3-14,70.0,57.5,41.2,55.4,47.8,38.3,91,71,52,30.25,30.09,19,3,21,0.00
2014-3-15,73.0,64.9,59.4,63.5,59.5,55.2,90,83,70,30.10,29.75,17,3,17,0.08
2014-3-16,80.1,68.2,53.4,68.9,61.2,48.0,91,79,47,29.81,29.60,18,4,21,0.33
2014-3-17,53.4,45.2,41.2,48.4,38.7,35.4,86,78,69,29.91,29.78,20,5,21,0.00
2014-3-18,68.0,52.8,38.7,50.0,43.3,35.6,90,72,46,29.98,29.86,18,2,19,0.00
2014-3-19,76.5,61.5,47.5,61.3,54.7,45.0,92,79,57,30.10,29.95,11,2,12,0.00
2014-3-20,76.5,64.5,55.6,58.1,48.1,39.9,89,58,29,30.19,30.06,15,3,15,0.00
2014-3-21,78.8,63.7,47.3,57.2,50.7,42.4,90,66,37,30.09,29.96,18,3,18,0.00
2014-3-22,83.5,69.4,56.7,66.9,60.7,52.9,89,76,43,30.04,29.94,13,2,13,0.00
2014-3-23,68.4,61.6,52.2,64.8,57.0,46.0,92,85,72,30.21,29.96,24,6,24,0.02
2014-3-24,68.9,57.8,49.6,49.3,46.3,42.3,87,67,47,30.20,29.96,14,4,14,0.02
2014-3-25,65.7,55.7,45.0,42.3,33.8,23.5,73,46,21,30.28,30.08,26,6,26,0.00
2014-3-26,60.1,51.5,43.5,42.3,34.4,26.8,70,52,43,30.36,30.16,20,5,20,0.00
2014-3-27,69.3,61.3,51.4,62.1,55.7,41.9,91,82,70,30.16,29.92,23,6,23,0.04
2014-3-28,82.6,69.6,61.7,74.3,66.1,58.8,92,89,76,29.97,29.81,21,6,21,0.76
2014-3-29,72.3,62.8,55.8,60.1,52.8,42.4,93,73,40,30.23,29.87,23,4,23,0.14
2014-3-30,73.2,59.6,46.6,50.0,44.5,42.1,89,60,34,30.30,30.13,16,2,16,0.00
2014-3-31,77.0,61.6,43.7,57.7,50.2,41.2,92,69,41,30.14,30.02,21,4,21,0.00
2014-4-1,82.0,69.3,59.2,66.9,61.5,56.5,92,78,54,30.10,30.01,16,4,16,0.00
2014-4-2,82.8,72.0,63.7,71.2,65.5,61.0,92,81,60,30.06,29.95,20,4,22,0.00
2014-4-3,82.8,74.7,68.5,70.7,67.8,65.5,91,80,58,29.99,29.87,22,6,24,0.00
2014-4-4,75.7,70.3,64.6,68.5,64.3,56.5,91,82,65,30.02,29.82,17,3,21,0.18
2014-4-5,66.9,63.0,58.5,56.8,51.1,46.0,89,66,54,30.08,29.92,17,5,17,0.01
2014-4-6,73.6,62.4,55.6,70.7,59.8,53.2,92,91,86,29.94,29.62,27,4,29,1.58
2014-4-7,70.3,62.9,54.9,67.6,57.3,50.7,93,82,63,29.95,29.62,22,3,22,1.45
2014-4-8,70.5,56.8,50.9,55.2,50.3,45.0,92,80,53,30.11,29.85,37,3,37,0.16
2014-4-9,71.8,57.8,45.1,49.6,44.8,39.6,92,66,33,30.27,30.11,11,1,12,0.00
2014-4-10,76.3,62.6,48.7,56.1,50.6,46.2,92,68,37,30.24,30.13,18,3,19,0.00
2014-4-11,77.9,66.5,55.8,61.5,57.2,52.5,90,74,51,30.20,30.06,15,2,15,0.00
2014-4-12,82.9,70.1,58.3,67.1,62.5,55.6,92,79,53,30.14,29.99,16,3,17,0.00
2014-4-13,83.1,74.0,66.7,70.9,66.1,63.3,91,78,56,30.01,29.80,26,5,26,0.00
2014-4-14,83.8,70.6,50.9,73.0,66.0,48.4,92,86,65,30.00,29.67,25,5,26,0.83
2014-4-15,59.7,50.7,44.1,48.4,38.3,32.2,91,65,38,30.21,29.98,26,9,28,0.00
2014-4-16,67.3,53.5,39.9,47.1,39.6,33.6,79,60,42,30.27,30.09,17,4,17,0.00
2014-4-17,66.0,59.6,49.8,59.5,53.9,45.9,88,82,69,30.20,30.10,14,3,14,0.00
2014-4-18,77.5,66.3,60.3,63.7,59.5,56.3,91,80,52,30.15,30.04,22,4,22,0.00
2014-4-19,79.2,66.7,53.2,57.9,55.5,50.7,92,70,45,30.19,30.08,14,2,14,0.00
2014-4-20,84.9,70.7,54.7,58.8,55.2,52.0,91,62,36,30.19,30.06,9,1,10,0.00
2014-4-21,82.6,70.3,61.5,63.9,60.6,57.9,91,73,48,30.14,29.97,13,2,13,0.00
2014-4-22,80.1,69.3,61.5,68.2,62.7,59.0,92,81,59,30.01,29.88,14,2,14,0.01
2014-4-23,86.2,72.4,58.6,64.2,60.3,56.3,92,69,41,29.99,29.87,10,1,10,0.00
2014-4-24,83.5,72.0,61.2,68.9,65.1,58.5,92,80,59,29.98,29.84,18,3,18,0.00
2014-4-25,87.4,75.3,67.8,69.8,65.3,59.2,92,73,49,30.00,29.90,12,2,12,0.00
2014-4-26,87.4,76.4,66.4,71.6,68.8,62.8,91,78,57,29.97,29.86,17,3,17,0.00
2014-4-27,86.9,77.7,72.0,75.4,71.1,68.9,91,81,59,29.90,29.70,29,7,29,0.00
2014-4-28,84.6,77.5,73.0,75.4,72.4,69.4,91,85,74,29.78,29.60,25,7,25,0.02
2014-4-29,87.3,77.2,71.8,77.0,71.6,61.5,92,83,66,29.82,29.64,17,3,18,0.02
2014-4-30,72.1,65.8,58.8,61.3,50.3,46.2,70,58,43,30.11,29.82,17,4,17,0.00
2014-5-1,73.0,62.5,50.4,51.8,45.7,39.9,85,57,35,30.15,29.99,17,3,17,0.00
2014-5-2,76.5,66.5,57.6,57.0,48.9,42.1,88,56,31,30.06,29.95,14,2,16,0.00
2014-5-3,87.1,71.0,54.0,62.1,54.7,46.4,91,62,27,30.12,30.02,16,2,16,0.00
2014-5-4,88.7,73.4,57.4,65.1,58.7,53.6,91,65,33,30.16,30.04,13,2,13,0.00
2014-5-5,85.5,71.4,56.3,63.9,57.9,53.4,91,66,37,30.10,29.96,13,3,14,0.00
2014-5-6,84.2,72.4,59.4,64.4,61.2,56.5,91,70,48,30.01,29.91,18,3,18,0.00
2014-5-7,86.5,76.0,66.2,69.4,66.1,61.3,90,73,51,30.04,29.93,21,4,21,0.00
2014-5-8,86.4,77.4,69.6,71.8,68.5,65.7,91,76,52,30.06,29.98,21,5,21,0.00
2014-5-9,80.4,73.2,64.9,76.1,70.1,62.6,92,90,85,30.04,29.93,21,4,21,1.70
2014-5-10,83.8,72.9,64.4,74.3,68.0,62.1,92,85,70,30.05,29.91,18,4,19,1.30
2014-5-11,85.8,74.9,71.4,77.2,71.4,68.7,91,89,72,30.01,29.92,30,3,30,0.37
2014-5-12,87.6,79.2,73.9,75.4,72.7,70.5,91,82,61,30.05,29.93,20,5,20,0.00
2014-5-13,86.9,76.6,70.9,72.9,70.2,67.1,91,81,53,30.06,29.97,15,2,16,0.01
2014-5-14,75.9,67.0,57.7,71.4,62.6,52.0,91,86,75,30.15,29.97,20,4,20,0.00
2014-5-15,71.8,60.8,50.4,53.2,48.8,45.3,89,67,40,30.25,30.15,18,4,20,0.00
2014-5-16,82.8,68.1,54.0,61.2,56.4,50.5,91,69,42,30.20,30.06,17,3,19,0.00
2014-5-17,83.1,72.0,61.7,66.0,61.7,58.5,90,72,50,30.16,30.08,17,4,19,0.00
2014-5-18,85.5,73.6,59.2,66.7,61.9,56.5,92,70,42,30.18,30.09,13,2,13,0.00
2014-5-19,87.1,75.0,61.5,68.7,61.7,53.1,91,67,37,30.16,30.09,16,3,16,0.00
2014-5-20,88.0,76.5,66.6,69.4,65.5,59.0,91,71,40,30.18,30.10,20,3,20,0.00
2014-5-21,88.9,78.1,68.2,71.6,67.2,63.5,91,71,45,30.19,30.09,15,2,15,0.00
2014-5-22,91.4,78.1,64.9,72.1,67.1,62.2,91,71,43,30.18,30.06,9,2,9,0.00
2014-5-23,90.3,77.8,67.8,72.3,67.2,63.1,91,72,46,30.16,30.03,11,2,14,0.00
2014-5-24,88.7,76.2,66.0,72.5,68.7,63.3,91,79,54,30.12,30.01,10,1,10,0.00
2014-5-25,90.3,78.4,66.2,72.1,68.0,63.5,91,72,45,30.10,30.00,11,2,11,0.00
2014-5-26,88.2,78.0,66.7,73.9,69.4,64.0,91,76,53,30.13,30.04,14,2,14,0.00
2014-5-27,86.7,78.1,73.2,74.5,71.8,69.1,90,82,59,30.08,29.92,18,4,20,0.06
2014-5-28,78.8,71.5,66.6,73.4,68.4,63.9,92,90,82,29.95,29.82,20,4,20,5.02
2014-5-29,79.3,74.0,70.3,73.8,70.3,67.1,91,88,81,29.87,29.79,19,3,19,0.09
2014-5-30,85.6,78.4,71.8,74.5,72.2,69.1,91,82,65,29.93,29.83,20,3,20,0.13
2014-5-31,84.4,77.1,72.1,75.9,71.8,68.7,91,84,66,29.97,29.88,19,3,20,1.11
2014-6-1,83.7,76.9,73.0,75.9,72.1,69.8,91,85,72,30.02,29.95,18,4,18,0.19
2014-6-2,86.4,77.5,72.3,77.0,72.2,69.4,91,84,62,30.04,29.99,20,2,20,0.02
2014-6-3,87.3,78.7,72.0,77.4,72.6,69.1,91,82,65,30.05,29.96,15,2,15,0.08
2014-6-4,90.0,79.9,72.3,76.1,73.2,69.6,91,81,60,29.97,29.87,12,2,12,0.13
2014-6-5,92.7,81.2,73.8,78.3,74.4,70.7,91,81,60,29.93,29.86,12,2,12,0.01
2014-6-6,93.6,83.2,73.0,77.2,74.4,70.3,91,76,54,29.98,29.89,9,1,9,0.00
2014-6-7,94.6,83.9,75.4,78.8,75.7,72.3,91,78,57,30.01,29.89,9,1,11,0.00
2014-6-8,94.5,83.3,74.3,78.6,75.1,71.4,91,78,58,30.00,29.85,12,2,12,0.00
2014-6-9,91.4,81.7,74.7,77.4,74.0,69.4,90,78,57,29.93,29.82,18,4,18,0.00
2014-6-10,85.5,76.3,66.9,78.1,72.6,64.2,91,88,76,29.96,29.76,20,3,21,3.76
2014-6-11,90.9,78.9,67.3,72.9,69.0,64.6,91,74,49,29.91,29.83,13,1,13,0.00
2014-6-12,95.2,81.7,70.9,76.5,72.2,68.0,91,75,47,29.97,29.84,8,1,8,0.00
2014-6-13,82.8,75.5,64.9,75.0,71.3,62.2,91,87,72,30.03,29.89,12,2,18,0.58
2014-6-14,93.0,79.7,69.3,76.1,71.2,66.4,91,77,52,30.01,29.92,15,1,15,0.00
2014-6-15,90.0,79.8,73.0,77.4,73.4,70.3,91,81,61,30.06,29.95,18,3,18,0.00
2014-6-16,91.8,80.2,74.1,78.4,73.9,70.0,91,82,59,30.16,30.05,16,2,17,0.00
2014-6-17,91.9,81.5,75.6,78.3,74.7,71.6,91,81,60,30.13,30.04,17,2,18,0.00
2014-6-18,94.3,82.9,73.2,77.2,73.5,70.5,91,75,50,30.11,30.01,10,2,12,0.00
2014-6-19,94.6,81.7,73.8,76.8,72.7,70.0,91,77,48,30.13,30.04,19,2,29,1.43
2014-6-20,93.6,82.1,72.7,78.8,73.6,70.0,91,77,54,30.12,30.00,7,1,10,0.01
2014-6-21,94.5,83.5,73.9,77.9,74.8,71.1,91,76,54,30.07,29.91,8,1,10,0.00
2014-6-22,93.0,82.4,75.2,79.9,75.0,69.8,91,79,57,30.00,29.88,14,1,18,0.14
2014-6-23,90.3,82.0,75.4,78.4,75.3,72.3,91,81,67,30.02,29.91,7,2,12,0.00
2014-6-24,93.4,78.7,72.0,78.1,73.5,68.7,91,85,57,30.09,29.99,19,2,27,0.32
2014-6-25,92.3,76.1,70.7,77.5,71.6,67.8,91,87,57,30.12,30.02,17,2,28,2.77
2014-6-26,89.1,75.3,70.7,79.0,71.5,68.0,92,89,67,30.10,29.97,13,2,20,2.65
2014-6-27,85.3,75.6,71.1,76.5,71.1,68.4,92,86,68,30.08,30.00,11,2,17,0.26
2014-6-28,91.8,81.6,72.1,80.2,75.5,69.3,91,82,64,30.10,30.02,13,4,17,0.00
2014-6-29,93.0,84.5,78.1,79.3,77.0,75.2,91,80,57,30.15,30.05,9,3,13,0.00
2014-6-30,95.4,84.7,77.0,79.0,76.6,74.1,91,78,56,30.09,29.97,7,2,12,0.00
2014-7-1,96.6,84.7,74.8,79.3,76.2,72.0,91,77,54,30.05,29.94,6,1,9,0.00
2014-7-2,95.4,83.5,74.5,80.1,75.5,68.7,91,78,57,30.05,29.96,18,2,25,0.00
2014-7-3,91.6,81.1,69.8,76.3,72.2,67.1,91,76,56,30.11,30.00,11,2,13,0.00
2014-7-4,88.9,80.4,73.0,75.2,68.7,64.9,87,69,47,30.19,30.10,15,4,18,0.00
2014-7-5,90.7,79.0,68.4,70.0,66.8,63.5,90,69,44,30.19,30.08,8,2,11,0.00
2014-7-6,93.7,80.9,67.6,72.7,68.8,64.4,91,69,41,30.11,29.99,15,1,16,0.00
2014-7-7,95.4,83.3,71.2,75.4,72.0,68.4,91,71,42,30.09,29.99,8,2,11,0.00
2014-7-8,94.3,79.2,71.4,78.4,73.1,68.7,91,82,55,30.11,29.99,12,2,22,0.18
2014-7-9,91.0,77.1,71.2,79.7,72.9,68.5,91,87,65,30.11,30.02,11,1,14,0.06
2014-7-10,95.0,82.1,72.9,79.9,74.6,70.2,91,79,56,30.12,30.01,11,1,15,0.01
2014-7-11,94.6,82.8,74.8,79.7,74.9,72.0,91,79,53,30.15,30.06,11,2,26,0.01
2014-7-12,94.6,82.6,72.0,78.3,73.8,69.3,91,77,50,30.16,30.04,9,2,11,0.01
2014-7-13,90.1,80.9,72.9,79.7,75.3,67.6,91,84,67,30.11,30.00,16,1,21,0.60
2014-7-14,94.3,81.9,74.3,80.1,75.7,71.4,91,82,59,30.05,29.94,14,2,14,0.00
2014-7-15,90.0,79.6,74.7,78.6,74.8,71.8,91,86,65,29.99,29.90,13,1,13,0.11
2014-7-16,86.5,77.8,72.0,72.3,67.8,63.1,91,73,47,30.02,29.93,12,3,12,0.00
2014-7-17,90.5,77.9,67.6,73.0,67.6,62.8,86,71,49,30.02,29.93,11,2,11,0.02
2014-7-18,77.5,75.0,72.3,74.7,72.0,69.6,91,91,83,30.00,29.89,13,2,14,2.43
2014-7-19,86.7,77.9,72.9,79.0,73.8,70.2,91,88,73,30.01,29.94,18,2,18,0.15
2014-7-20,91.6,80.0,73.8,78.6,74.9,70.7,92,85,62,30.03,29.94,12,2,14,0.00
2014-7-21,90.1,81.2,73.2,78.3,74.2,70.5,91,80,62,30.06,29.97,12,2,12,0.00
2014-7-22,91.2,80.2,72.3,76.8,72.8,69.6,91,79,55,30.04,29.96,11,2,12,0.00
2014-7-23,91.2,78.8,71.4,77.5,73.3,68.7,91,84,61,30.05,29.94,11,2,11,0.68
2014-7-24,93.7,81.2,73.0,78.1,74.3,70.3,91,81,53,30.01,29.92,12,1,12,0.00
2014-7-25,96.6,84.3,74.8,79.7,75.9,72.0,91,77,54,30.05,29.94,11,1,11,0.00
2014-7-26,97.9,84.9,76.5,80.1,77.0,73.6,91,79,54,30.09,29.98,13,2,13,0.00
2014-7-27,97.2,85.3,76.6,80.1,77.1,73.8,91,78,53,30.11,30.00,11,2,12,0.00
2014-7-28,92.8,83.7,76.3,82.0,77.3,73.0,91,82,67,30.10,29.96,13,2,13,0.00
2014-7-29,89.6,80.3,73.9,73.4,70.9,66.7,91,75,52,30.10,29.99,11,2,11,0.00
2014-7-30,87.6,79.0,69.3,70.0,65.6,59.9,85,65,44,30.09,29.99,13,3,14,0.00
2014-7-31,92.7,80.5,71.4,72.9,67.6,64.0,83,66,46,30.05,29.96,10,2,10,0.00
2014-8-1,84.9,78.1,73.0,76.8,72.7,67.8,91,84,66,30.00,29.93,17,2,19,0.58
2014-8-2,87.4,80.3,75.9,77.2,75.0,72.9,90,84,70,30.00,29.91,14,3,15,0.00
2014-8-3,92.8,81.3,72.9,77.7,74.9,70.0,91,82,54,30.02,29.93,23,2,24,0.63
2014-8-4,93.6,80.7,72.1,79.0,73.6,69.4,92,80,54,30.03,29.93,13,1,13,0.01
2014-8-5,97.0,83.3,73.9,79.7,74.9,71.1,91,77,51,30.07,29.98,18,1,19,0.00
2014-8-6,97.7,85.2,74.8,79.9,76.4,72.0,91,77,51,30.06,29.95,8,1,9,0.00
2014-8-7,97.5,85.6,77.2,79.9,77.1,74.3,91,77,50,30.02,29.90,13,1,14,0.00
2014-8-8,96.6,83.4,76.3,80.4,76.5,72.1,91,81,55,30.02,29.92,16,1,16,0.00
2014-8-9,97.0,83.9,76.5,80.4,76.3,72.9,91,79,52,30.05,29.95,15,2,15,0.00
2014-8-10,90.9,78.2,74.8,80.8,74.3,72.0,91,88,69,30.08,29.96,21,1,21,0.17
2014-8-11,93.0,80.0,71.8,81.5,74.4,68.9,92,84,61,30.05,29.95,27,1,27,0.06
2014-8-12,91.0,80.0,71.1,79.3,73.6,68.4,92,82,63,30.01,29.88,11,1,11,0.01
2014-8-13,88.3,80.0,72.7,74.3,71.0,67.8,90,75,55,30.04,29.96,11,3,11,0.00
2014-8-14,90.0,78.6,67.1,70.0,67.3,63.9,90,70,49,30.06,29.96,11,2,11,0.00
2014-8-15,92.1,79.9,67.1,73.6,69.6,64.4,91,72,50,30.06,29.94,11,1,11,0.00
2014-8-16,95.9,83.5,74.8,79.5,75.4,71.1,91,78,54,30.03,29.95,13,2,13,0.00
2014-8-17,92.5,79.7,72.9,81.1,75.0,70.0,91,86,65,30.07,29.99,19,2,19,0.43
2014-8-18,97.0,83.1,73.9,81.9,76.2,71.1,91,81,57,30.02,29.91,14,2,14,0.12
2014-8-19,97.5,82.9,75.4,80.4,75.1,71.4,91,79,47,30.01,29.92,13,1,13,0.01
2014-8-20,97.0,80.9,72.9,79.9,74.6,70.2,91,82,56,30.07,29.95,15,1,15,0.00
2014-8-21,100.4,81.8,75.4,81.0,75.6,72.5,91,83,49,30.13,30.06,24,1,24,0.00
2014-8-22,88.3,78.9,74.3,80.2,74.3,71.4,91,87,63,30.12,30.00,5,0,5,0.00
2014-8-23,95.4,85.0,76.3,80.2,77.0,73.2,91,78,56,30.05,29.91,10,1,10,0.00
2014-8-24,96.3,85.1,77.0,81.0,77.7,74.1,91,80,59,29.98,29.86,13,2,13,0.00
2014-8-25,93.9,80.5,73.9,79.2,75.0,71.1,91,84,61,29.95,29.85,28,2,28,1.14
2014-8-26,90.3,81.0,73.9,76.5,73.5,71.1,92,79,59,30.01,29.93,12,2,13,0.00
2014-8-27,92.1,81.7,73.2,76.6,74.1,70.5,92,79,57,30.03,29.94,15,2,15,0.00
2014-8-28,92.3,84.1,76.5,78.4,75.4,71.8,91,77,55,30.00,29.89,13,2,13,0.00
2014-8-29,88.0,80.0,76.5,77.9,75.2,73.2,91,86,70,30.01,29.92,14,2,15,0.06
2014-8-30,81.7,75.8,73.6,78.4,72.9,70.7,92,91,89,30.06,29.96,19,2,19,2.09
2014-8-31,93.2,81.7,73.0,81.0,74.5,70.3,92,80,56,30.08,29.99,16,2,16,0.00
2014-9-1,90.9,82.3,76.8,80.1,76.9,73.9,91,84,67,30.04,29.95,28,3,29,0.06
2014-9-2,93.6,83.8,75.7,82.2,76.6,72.7,91,80,58,30.06,29.96,14,2,15,0.01
2014-9-3,92.1,78.1,73.8,82.2,73.5,70.9,92,86,63,30.06,29.97,12,1,15,0.48
2014-9-4,94.1,81.6,73.0,77.7,74.3,70.3,92,80,55,30.08,29.99,8,1,13,0.00
2014-9-5,95.0,79.9,73.8,79.5,74.3,70.9,91,84,53,30.12,30.01,12,1,23,0.05
2014-9-6,91.6,78.9,72.3,78.8,73.8,69.6,92,85,63,30.08,29.96,11,1,14,0.01
2014-9-7,92.5,78.6,72.9,80.1,74.0,70.3,92,87,60,30.01,29.91,7,1,14,0.01
2014-9-8,94.1,81.8,73.0,78.6,74.8,70.5,92,81,57,30.02,29.92,6,1,9,0.01
2014-9-9,96.4,84.0,75.0,79.7,76.2,72.5,92,79,53,30.02,29.89,6,1,8,0.00
2014-9-10,94.3,84.1,75.6,79.3,76.1,73.0,92,79,54,29.97,29.87,9,2,11,0.00
2014-9-11,92.8,81.3,75.4,80.6,75.9,72.9,92,85,62,29.99,29.91,9,1,13,0.03
2014-9-12,92.1,80.0,74.8,79.2,75.6,72.3,92,87,63,30.04,29.92,9,1,11,0.20
2014-9-13,78.4,74.4,69.1,74.7,71.1,66.7,92,90,83,30.13,29.99,13,6,16,0.00
2014-9-14,85.3,75.3,68.5,76.3,71.0,66.2,93,87,74,30.15,30.04,10,5,13,0.00
2014-9-15,91.4,79.4,72.1,79.7,74.4,69.6,92,86,65,30.10,30.01,11,2,21,0.13
2014-9-16,92.7,77.6,72.7,80.1,73.7,70.2,92,88,64,30.08,29.95,10,1,21,0.30
2014-9-17,89.8,78.6,72.0,79.2,73.5,69.4,93,85,68,29.99,29.88,7,1,8,0.02
2014-9-18,88.2,77.1,71.4,77.4,72.6,68.9,92,87,68,29.94,29.85,11,1,16,0.10
2014-9-19,88.7,78.1,71.8,75.0,71.9,69.3,93,82,56,29.97,29.89,15,2,15,0.02
2014-9-20,88.9,79.3,71.2,73.2,71.1,68.5,92,77,55,30.00,29.91,15,3,15,0.00
2014-9-21,88.5,78.8,70.0,72.1,69.8,67.1,93,76,50,30.04,29.96,15,3,17,0.00
2014-9-22,87.1,76.7,67.8,75.9,68.7,60.3,93,78,57,30.08,29.97,17,4,17,0.00
2014-9-23,82.9,72.2,63.5,61.2,58.7,55.8,82,64,42,30.13,30.03,15,4,16,0.00
2014-9-24,85.5,74.4,62.1,71.1,66.1,59.4,92,76,60,30.16,30.07,13,2,13,0.00
2014-9-25,84.4,75.1,67.5,69.8,65.6,61.7,92,74,48,30.17,30.08,14,2,15,0.00
2014-9-26,85.5,75.8,66.7,69.8,66.6,64.0,91,75,51,30.10,29.99,13,2,13,0.00
2014-9-27,86.4,75.7,65.3,72.5,68.1,63.0,92,78,60,30.04,29.94,12,2,12,0.00
2014-9-28,81.3,76.5,72.9,75.6,72.2,69.8,92,87,80,30.01,29.90,12,3,12,0.00
2014-9-29,84.4,78.2,73.4,75.6,73.0,70.9,92,85,70,29.94,29.84,13,3,13,0.00
2014-9-30,91.6,80.0,69.3,74.8,71.5,67.1,93,77,54,29.91,29.80,11,1,11,0.00
2014-10-1,85.5,77.9,74.3,77.5,74.3,72.0,93,89,76,29.94,29.84,15,3,15,0.01
2014-10-2,91.6,81.4,75.4,80.4,75.9,72.9,92,85,62,29.98,29.87,17,4,18,0.00
2014-10-3,80.2,73.4,65.8,77.0,68.7,63.3,93,86,70,30.10,29.89,20,2,20,0.79
2014-10-4,71.1,62.8,55.6,63.3,51.0,41.4,93,69,38,30.17,30.03,19,4,21,0.00
2014-10-5,81.1,65.7,51.3,61.7,54.2,46.9,93,70,36,30.08,29.95,14,2,16,0.00
2014-10-6,84.0,72.6,64.0,71.4,66.4,61.7,93,82,59,30.01,29.83,11,2,20,0.00
2014-10-7,90.3,78.1,65.5,75.0,69.9,63.3,93,78,51,30.06,29.95,7,1,9,0.01
2014-10-8,89.2,77.7,65.7,74.8,70.2,63.5,93,79,56,30.11,30.01,9,2,12,0.01
2014-10-9,90.1,79.7,73.2,77.0,73.6,70.7,93,83,61,30.08,29.95,14,2,14,0.00
2014-10-10,91.6,81.0,73.0,77.5,72.8,68.7,93,78,51,30.04,29.94,12,2,13,0.00
2014-10-11,90.0,78.0,68.9,76.6,71.9,66.2,93,83,51,30.04,29.95,12,1,12,0.00
2014-10-12,87.4,77.4,71.4,76.6,72.4,69.3,93,85,64,30.00,29.88,12,2,17,0.40
2014-10-13,88.5,74.5,62.8,77.0,70.3,60.4,93,87,63,29.91,29.73,30,5,32,0.83
2014-10-14,75.7,64.6,55.9,60.4,54.9,50.0,93,73,45,30.04,29.87,18,2,19,0.01
2014-10-15,77.9,63.4,50.5,56.3,52.2,48.4,93,71,39,30.08,29.97,18,1,18,0.00
2014-10-16,84.9,68.0,52.3,63.7,57.8,50.4,93,74,41,30.04,29.94,10,1,11,0.00
2014-10-17,84.6,71.2,57.9,67.6,63.3,55.9,93,78,53,30.04,29.93,10,2,11,0.01
2014-10-18,83.7,72.2,62.1,70.0,65.2,59.5,93,80,57,30.06,29.96,15,2,15,0.01
2014-10-19,76.8,66.2,58.3,59.7,56.9,53.8,90,73,53,30.13,30.03,15,3,15,0.00
2014-10-20,78.4,64.8,54.5,59.7,56.0,51.4,91,75,47,30.08,29.99,11,1,11,0.00
2014-10-21,80.1,67.3,55.8,61.9,57.5,53.1,91,73,45,30.08,29.97,13,2,13,0.00
2014-10-22,78.6,67.8,58.3,60.3,56.9,52.9,93,70,43,30.12,30.02,16,4,16,0.00
2014-10-23,74.3,62.9,52.3,56.7,51.8,48.0,86,69,43,30.14,30.03,12,3,12,0.00
2014-10-24,74.5,61.5,50.4,55.2,51.8,47.8,93,73,41,30.14,30.05,11,2,11,0.00
2014-10-25,81.7,63.9,48.4,58.8,53.4,46.4,93,72,39,30.18,30.06,12,1,12,0.00
2014-10-26,85.8,68.9,54.0,66.7,59.6,52.0,93,75,47,30.10,29.99,7,1,8,0.00
2014-10-27,84.2,69.9,56.5,68.7,63.1,54.3,93,81,56,30.05,29.96,13,2,13,0.00
2014-10-28,86.5,74.7,66.0,70.2,66.7,63.9,93,78,49,30.09,29.99,10,1,12,0.01
2014-10-29,81.9,70.5,63.1,72.1,65.7,54.5,93,85,69,30.12,30.01,16,2,16,0.00
2014-10-30,73.0,62.5,52.2,54.7,48.9,44.1,89,64,37,30.14,30.02,14,3,14,0.00
2014-10-31,72.7,60.1,48.2,53.6,49.6,45.7,93,71,43,30.22,30.04,20,4,20,0.00
2014-11-1,58.8,49.9,40.1,46.2,32.4,25.0,75,52,30,30.40,30.22,21,6,21,0.00
2014-11-2,66.2,51.4,40.3,44.8,37.2,32.2,84,60,33,30.46,30.31,13,2,13,0.00
2014-11-3,73.4,59.1,41.0,58.1,49.1,38.3,92,72,47,30.38,30.25,13,2,14,0.00
2014-11-4,79.0,68.7,58.6,64.4,60.7,55.2,90,77,60,30.25,30.10,16,3,19,0.00
2014-11-5,76.1,69.1,62.8,69.4,65.4,60.4,92,88,77,30.16,30.09,14,2,14,0.17
2014-11-6,71.6,65.2,55.2,68.0,61.9,52.9,93,89,81,30.21,30.13,14,2,14,0.07
2014-11-7,62.8,54.0,47.5,52.9,42.2,36.7,92,66,40,30.24,30.04,21,5,21,0.00
2014-11-8,68.0,56.3,45.9,48.9,43.8,38.7,85,65,40,30.09,29.96,8,1,11,0.00
2014-11-9,68.9,56.5,48.4,50.9,47.6,45.7,93,74,47,30.12,29.98,15,2,15,0.00
2014-11-10,77.4,60.3,43.0,60.4,53.5,41.2,94,80,51,30.04,29.89,14,2,14,0.01
2014-11-11,80.6,68.8,59.7,66.6,63.0,56.8,93,83,58,30.04,29.90,14,2,15,0.00
2014-11-12,59.5,48.6,41.7,56.7,45.6,36.3,93,89,81,30.24,30.04,18,7,18,0.01
2014-11-13,46.6,40.6,34.3,36.7,31.4,22.6,87,70,59,30.38,30.23,19,9,25,0.02
2014-11-14,48.7,38.8,30.7,25.9,22.4,18.9,72,53,32,30.43,30.27,19,5,19,0.00
2014-11-15,57.0,46.2,33.1,47.7,29.7,23.9,81,54,33,30.35,30.12,14,3,14,0.00
2014-11-16,75.6,63.9,49.5,67.8,60.1,47.5,94,88,74,30.13,29.78,22,5,27,3.05
2014-11-17,49.3,42.4,37.0,47.5,35.3,27.3,94,77,50,30.38,29.86,24,7,24,0.17
2014-11-18,49.1,38.5,31.5,30.9,25.5,21.0,91,61,34,30.53,30.38,17,4,19,0.00
2014-11-19,62.2,45.8,29.1,44.1,33.0,26.2,94,66,26,30.46,30.27,13,2,15,0.01
2014-11-20,71.8,56.6,41.2,54.1,47.9,39.4,93,75,47,30.28,30.15,11,2,12,0.00
2014-11-21,71.8,60.2,49.8,55.4,50.8,46.6,91,73,44,30.29,30.19,19,3,20,0.00
2014-11-22,69.4,61.3,53.6,61.7,57.0,50.2,93,86,76,30.24,29.84,19,4,19,0.00
2014-11-23,75.2,67.3,62.1,66.6,63.0,59.9,93,87,63,29.86,29.55,22,6,23,0.50
2014-11-24,67.3,59.8,48.9,65.1,50.8,39.7,94,73,52,30.11,29.71,18,3,19,0.01
2014-11-25,56.5,48.9,37.4,42.1,36.6,30.7,90,64,38,30.25,30.11,13,2,16,0.00
2014-11-26,71.1,52.7,34.9,47.8,40.2,33.1,94,68,30,30.27,30.13,20,3,21,0.00
2014-11-27,59.9,50.4,41.9,46.4,37.6,32.2,92,64,37,30.47,30.27,18,4,19,0.00
2014-11-28,62.6,49.6,38.7,45.9,38.3,33.4,90,67,38,30.44,30.22,12,2,12,0.00
2014-11-29,76.8,61.9,47.5,62.2,55.3,45.3,93,81,53,30.22,30.11,19,4,19,0.00
2014-11-30,80.4,67.2,59.2,63.7,59.4,56.5,93,78,51,30.23,30.14,20,2,20,0.00
2014-12-1,81.7,67.0,53.4,66.9,59.8,51.3,94,80,49,30.32,30.22,15,2,15,0.01
2014-12-2,70.3,58.1,51.1,62.2,53.8,49.1,94,86,63,30.32,30.19,11,1,11,0.00
2014-12-3,73.2,61.2,48.2,64.8,57.3,46.2,94,87,73,30.25,30.15,8,1,8,0.00
2014-12-4,70.0,63.5,56.7,66.6,61.1,54.7,94,92,89,30.23,30.14,8,1,9,0.01
2014-12-5,79.9,70.7,65.8,70.7,66.4,63.7,94,87,69,30.21,30.11,17,3,17,0.00
2014-12-6,75.9,67.1,56.5,71.1,63.4,51.8,93,88,76,30.31,30.17,19,3,19,0.31
2014-12-7,58.8,52.5,45.3,51.8,46.7,41.9,93,81,64,30.36,30.21,16,5,16,0.00
2014-12-8,64.6,51.6,41.4,49.1,44.5,39.6,94,78,54,30.30,30.19,15,2,15,0.00
2014-12-9,69.1,52.4,40.6,50.2,42.4,37.8,94,72,32,30.32,30.19,11,1,12,0.00
2014-12-10,62.1,49.6,39.9,43.0,40.1,36.9,91,71,45,30.34,30.17,12,2,13,0.00
2014-12-11,63.9,51.7,42.3,44.8,41.5,37.9,87,70,46,30.32,30.21,10,1,10,0.00
2014-12-12,67.5,57.0,47.8,50.7,47.9,43.9,89,73,51,30.38,30.27,7,1,9,0.00
2014-12-13,71.2,58.8,49.8,53.6,49.8,46.9,91,73,49,30.33,30.17,6,1,9,0.00
2014-12-14,71.6,58.2,45.0,55.8,51.1,42.8,94,79,55,30.19,30.04,11,2,11,0.00
2014-12-15,76.5,67.0,57.4,67.3,62.3,54.1,92,85,69,30.05,29.93,23,5,26,0.04
2014-12-16,66.9,56.5,45.7,64.6,42.1,38.5,92,59,46,30.29,30.06,13,2,14,0.01
2014-12-17,60.1,49.9,39.2,45.1,41.5,36.1,91,74,56,30.31,30.16,10,1,10,0.00
2014-12-18,65.7,56.2,48.4,57.4,51.5,43.3,93,84,73,30.19,30.07,16,2,16,0.00
2014-12-19,57.0,52.8,47.7,55.2,51.1,46.0,94,94,93,30.17,30.03,17,4,17,1.75
2014-12-20,51.1,48.8,47.7,48.9,47.1,45.7,94,93,92,30.19,30.07,16,6,16,0.04
2014-12-21,60.6,52.8,46.6,53.2,49.4,44.6,94,89,74,30.17,29.93,9,1,9,0.00
2014-12-22,76.8,63.9,53.1,67.6,60.5,51.4,94,89,69,29.93,29.65,16,3,18,0.00
2014-12-23,76.5,63.0,49.3,72.3,60.8,46.8,94,93,83,29.72,29.47,23,3,23,1.24
2014-12-24,54.9,47.9,39.7,46.9,40.9,36.3,93,78,54,30.14,29.70,15,2,16,0.01
2014-12-25,58.6,47.5,36.1,43.5,39.6,34.5,94,76,50,30.28,30.14,13,2,13,0.00
2014-12-26,63.1,55.8,46.0,57.2,51.5,42.1,93,86,79,30.21,30.10,11,3,15,0.07
2014-12-27,71.2,65.7,59.2,69.1,63.7,57.2,94,93,92,30.14,30.00,12,3,12,0.60
2014-12-28,70.9,55.8,50.5,69.1,54.0,48.9,95,94,90,30.16,30.02,12,3,12,0.18
2014-12-29,54.9,51.6,48.9,53.2,50.0,47.1,95,94,93,30.19,30.06,9,2,9,0.01
2014-12-30,51.6,46.0,38.7,50.0,44.0,37.0,95,93,89,30.45,30.18,18,6,18,0.00
2014-12-31,56.5,43.5,34.3,40.8,36.5,32.5,95,78,49,30.48,30.29,14,5,17,0.00
2015-1-1,53.8,47.8,42.3,50.9,43.6,36.1,92,85,77,30.38,30.14,14,4,14,0.00
2015-1-2,70.3,61.9,53.2,67.6,59.9,50.9,94,93,90,30.16,30.00,14,2,14,0.04